sensor_id;sensor_type;location;lat;lon;timestamp;P1;durP1;ratioP1;P2;durP2;ratioP2
64857;SDS011;51335;51.148;6.950;2023-03-12T00:00:25;9.25;;;3.85;;
64857;SDS011;51335;51.148;6.950;2023-03-12T00:00:56;7.47;;;3.45;;
64857;SDS011;51335;51.148;6.950;2023-03-12T00:01:26;7.43;;;3.63;;
64857;SDS011;51335;51.148;6.950;2023-03-12T00:01:56;5.80;;;3.70;;
64857;SDS011;51335;51.148;6.950;2023-03-12T00:02:27;9.10;;;3.50;;
64857;SDS011;51335;51.148;6.950;2023-03-12T00:02:57;7.38;;;3.75;;
64857;SDS011;51335;51.148;6.950;2023-03-12T00:03:27;7.10;;;3.60;;
64857;SDS011;51335;51.148;6.950;2023-03-12T00:03:59;6.97;;;3.22;;
64857;SDS011;51335;51.148;6.950;2023-03-12T00:04:31;6.80;;;3.72;;
64857;SDS011;51335;51.148;6.950;2023-03-12T00:05:02;7.03;;;3.40;;
64857;SDS011;51335;51.148;6.950;2023-03-12T00:05:35;6.38;;;3.35;;
64857;SDS011;51335;51.148;6.950;2023-03-12T00:06:06;6.78;;;3.22;;
64857;SDS011;51335;51.148;6.950;2023-03-12T00:06:37;7.78;;;3.55;;
64857;SDS011;51335;51.148;6.950;2023-03-12T00:07:07;7.68;;;3.55;;
64857;SDS011;51335;51.148;6.950;2023-03-12T00:07:37;6.95;;;3.30;;
64857;SDS011;51335;51.148;6.950;2023-03-12T00:08:08;6.97;;;3.00;;
64857;SDS011;51335;51.148;6.950;2023-03-12T00:08:38;5.85;;;3.20;;
64857;SDS011;51335;51.148;6.950;2023-03-12T00:09:09;7.75;;;3.47;;
64857;SDS011;51335;51.148;6.950;2023-03-12T00:09:39;9.13;;;3.53;;
64857;SDS011;51335;51.148;6.950;2023-03-12T00:10:09;7.80;;;3.97;;
64857;SDS011;51335;51.148;6.950;2023-03-12T00:10:40;5.63;;;3.03;;
64857;SDS011;51335;51.148;6.950;2023-03-12T00:11:11;6.35;;;3.17;;
64857;SDS011;51335;51.148;6.950;2023-03-12T00:11:44;5.55;;;3.20;;
64857;SDS011;51335;51.148;6.950;2023-03-12T00:12:14;5.90;;;3.20;;
64857;SDS011;51335;51.148;6.950;2023-03-12T00:12:45;9.38;;;3.88;;
64857;SDS011;51335;51.148;6.950;2023-03-12T00:13:15;9.13;;;3.90;;
64857;SDS011;51335;51.148;6.950;2023-03-12T00:13:50;6.63;;;3.30;;
64857;SDS011;51335;51.148;6.950;2023-03-12T00:14:21;7.43;;;3.17;;
64857;SDS011;51335;51.148;6.950;2023-03-12T00:14:51;7.95;;;3.55;;
64857;SDS011;51335;51.148;6.950;2023-03-12T00:15:21;7.03;;;3.33;;
64857;SDS011;51335;51.148;6.950;2023-03-12T00:15:52;10.40;;;3.40;;
64857;SDS011;51335;51.148;6.950;2023-03-12T00:16:23;5.80;;;2.95;;
64857;SDS011;51335;51.148;6.950;2023-03-12T00:16:54;7.05;;;3.10;;
64857;SDS011;51335;51.148;6.950;2023-03-12T00:17:24;7.07;;;2.97;;
64857;SDS011;51335;51.148;6.950;2023-03-12T00:17:54;5.13;;;3.05;;
64857;SDS011;51335;51.148;6.950;2023-03-12T00:18:24;9.55;;;3.88;;
64857;SDS011;51335;51.148;6.950;2023-03-12T00:18:55;6.63;;;3.28;;
64857;SDS011;51335;51.148;6.950;2023-03-12T00:19:25;7.43;;;3.28;;
64857;SDS011;51335;51.148;6.950;2023-03-12T00:19:56;7.10;;;3.25;;
64857;SDS011;51335;51.148;6.950;2023-03-12T00:20:26;7.80;;;3.38;;
64857;SDS011;51335;51.148;6.950;2023-03-12T00:20:56;8.00;;;3.58;;
64857;SDS011;51335;51.148;6.950;2023-03-12T00:21:27;7.75;;;2.90;;
64857;SDS011;51335;51.148;6.950;2023-03-12T00:21:57;6.95;;;2.88;;
64857;SDS011;51335;51.148;6.950;2023-03-12T00:22:28;8.85;;;3.10;;
64857;SDS011;51335;51.148;6.950;2023-03-12T00:22:58;6.22;;;3.20;;
64857;SDS011;51335;51.148;6.950;2023-03-12T00:23:28;7.38;;;2.90;;
64857;SDS011;51335;51.148;6.950;2023-03-12T00:23:59;8.23;;;2.80;;
64857;SDS011;51335;51.148;6.950;2023-03-12T00:24:29;6.13;;;2.95;;
64857;SDS011;51335;51.148;6.950;2023-03-12T00:24:59;5.22;;;3.25;;
64857;SDS011;51335;51.148;6.950;2023-03-12T00:25:30;6.75;;;3.10;;
64857;SDS011;51335;51.148;6.950;2023-03-12T00:26:01;6.88;;;2.80;;
64857;SDS011;51335;51.148;6.950;2023-03-12T00:26:36;8.55;;;3.03;;
64857;SDS011;51335;51.148;6.950;2023-03-12T00:27:07;8.05;;;3.10;;
64857;SDS011;51335;51.148;6.950;2023-03-12T00:27:37;5.82;;;3.20;;
64857;SDS011;51335;51.148;6.950;2023-03-12T00:28:07;6.28;;;3.08;;
64857;SDS011;51335;51.148;6.950;2023-03-12T00:28:38;11.07;;;3.28;;
64857;SDS011;51335;51.148;6.950;2023-03-12T00:29:09;6.35;;;2.70;;
64857;SDS011;51335;51.148;6.950;2023-03-12T00:29:39;6.68;;;3.28;;
64857;SDS011;51335;51.148;6.950;2023-03-12T00:30:10;5.65;;;3.33;;
64857;SDS011;51335;51.148;6.950;2023-03-12T00:30:40;9.68;;;3.17;;
64857;SDS011;51335;51.148;6.950;2023-03-12T00:31:18;6.70;;;3.10;;
64857;SDS011;51335;51.148;6.950;2023-03-12T00:31:50;6.07;;;3.20;;
64857;SDS011;51335;51.148;6.950;2023-03-12T00:32:21;7.30;;;3.03;;
64857;SDS011;51335;51.148;6.950;2023-03-12T00:32:51;7.25;;;3.00;;
64857;SDS011;51335;51.148;6.950;2023-03-12T00:33:21;6.07;;;3.10;;
64857;SDS011;51335;51.148;6.950;2023-03-12T00:33:52;5.68;;;2.80;;
64857;SDS011;51335;51.148;6.950;2023-03-12T00:34:23;6.95;;;2.70;;
64857;SDS011;51335;51.148;6.950;2023-03-12T00:34:54;6.82;;;2.90;;
64857;SDS011;51335;51.148;6.950;2023-03-12T00:35:24;7.75;;;2.95;;
64857;SDS011;51335;51.148;6.950;2023-03-12T00:35:55;6.07;;;3.10;;
64857;SDS011;51335;51.148;6.950;2023-03-12T00:36:30;5.20;;;2.92;;
64857;SDS011;51335;51.148;6.950;2023-03-12T00:37:01;7.70;;;3.30;;
64857;SDS011;51335;51.148;6.950;2023-03-12T00:37:32;6.38;;;3.08;;
64857;SDS011;51335;51.148;6.950;2023-03-12T00:38:02;7.10;;;2.80;;
64857;SDS011;51335;51.148;6.950;2023-03-12T00:38:32;9.10;;;2.95;;
64857;SDS011;51335;51.148;6.950;2023-03-12T00:39:03;7.00;;;3.05;;
64857;SDS011;51335;51.148;6.950;2023-03-12T00:39:33;6.45;;;2.95;;
64857;SDS011;51335;51.148;6.950;2023-03-12T00:40:04;10.63;;;2.85;;
64857;SDS011;51335;51.148;6.950;2023-03-12T00:40:35;6.72;;;3.15;;
64857;SDS011;51335;51.148;6.950;2023-03-12T00:41:06;6.13;;;3.20;;
64857;SDS011;51335;51.148;6.950;2023-03-12T00:41:36;6.97;;;3.30;;
64857;SDS011;51335;51.148;6.950;2023-03-12T00:42:06;5.50;;;2.85;;
64857;SDS011;51335;51.148;6.950;2023-03-12T00:42:37;7.90;;;3.35;;
64857;SDS011;51335;51.148;6.950;2023-03-12T00:43:07;6.80;;;3.30;;
64857;SDS011;51335;51.148;6.950;2023-03-12T00:43:37;11.13;;;3.47;;
64857;SDS011;51335;51.148;6.950;2023-03-12T00:44:08;6.75;;;3.25;;
64857;SDS011;51335;51.148;6.950;2023-03-12T00:44:38;9.00;;;3.42;;
64857;SDS011;51335;51.148;6.950;2023-03-12T00:45:08;7.30;;;3.22;;
64857;SDS011;51335;51.148;6.950;2023-03-12T00:45:39;6.13;;;3.03;;
64857;SDS011;51335;51.148;6.950;2023-03-12T00:46:09;7.18;;;2.92;;
64857;SDS011;51335;51.148;6.950;2023-03-12T00:46:40;5.72;;;3.03;;
64857;SDS011;51335;51.148;6.950;2023-03-12T00:47:10;6.50;;;3.13;;
64857;SDS011;51335;51.148;6.950;2023-03-12T00:47:41;8.25;;;3.40;;
64857;SDS011;51335;51.148;6.950;2023-03-12T00:48:11;8.68;;;3.33;;
64857;SDS011;51335;51.148;6.950;2023-03-12T00:48:42;10.73;;;3.28;;
64857;SDS011;51335;51.148;6.950;2023-03-12T00:49:13;6.57;;;3.10;;
64857;SDS011;51335;51.148;6.950;2023-03-12T00:49:43;8.23;;;3.20;;
64857;SDS011;51335;51.148;6.950;2023-03-12T00:50:13;8.55;;;2.90;;
64857;SDS011;51335;51.148;6.950;2023-03-12T00:50:44;4.75;;;2.80;;
64857;SDS011;51335;51.148;6.950;2023-03-12T00:51:14;5.88;;;3.05;;
64857;SDS011;51335;51.148;6.950;2023-03-12T00:51:44;9.07;;;3.30;;
64857;SDS011;51335;51.148;6.950;2023-03-12T00:52:15;8.18;;;3.53;;
64857;SDS011;51335;51.148;6.950;2023-03-12T00:52:45;5.80;;;3.40;;
64857;SDS011;51335;51.148;6.950;2023-03-12T00:53:15;7.93;;;3.15;;
64857;SDS011;51335;51.148;6.950;2023-03-12T00:53:46;4.80;;;3.00;;
64857;SDS011;51335;51.148;6.950;2023-03-12T00:54:16;5.65;;;2.80;;
64857;SDS011;51335;51.148;6.950;2023-03-12T00:54:46;7.20;;;2.83;;
64857;SDS011;51335;51.148;6.950;2023-03-12T00:55:17;7.47;;;2.90;;
64857;SDS011;51335;51.148;6.950;2023-03-12T00:55:47;7.60;;;3.00;;
64857;SDS011;51335;51.148;6.950;2023-03-12T00:56:17;6.60;;;3.20;;
64857;SDS011;51335;51.148;6.950;2023-03-12T00:56:48;5.53;;;2.70;;
64857;SDS011;51335;51.148;6.950;2023-03-12T00:57:18;7.90;;;2.95;;
64857;SDS011;51335;51.148;6.950;2023-03-12T00:57:48;7.05;;;2.92;;
64857;SDS011;51335;51.148;6.950;2023-03-12T00:58:19;8.95;;;2.92;;
64857;SDS011;51335;51.148;6.950;2023-03-12T00:58:49;7.00;;;2.80;;
64857;SDS011;51335;51.148;6.950;2023-03-12T00:59:19;6.20;;;2.60;;
64857;SDS011;51335;51.148;6.950;2023-03-12T00:59:50;5.05;;;2.70;;
64857;SDS011;51335;51.148;6.950;2023-03-12T01:00:20;8.18;;;3.10;;
64857;SDS011;51335;51.148;6.950;2023-03-12T01:00:50;8.40;;;3.05;;
64857;SDS011;51335;51.148;6.950;2023-03-12T01:01:21;5.15;;;2.80;;
64857;SDS011;51335;51.148;6.950;2023-03-12T01:01:51;5.50;;;3.05;;
64857;SDS011;51335;51.148;6.950;2023-03-12T01:02:22;5.90;;;2.97;;
64857;SDS011;51335;51.148;6.950;2023-03-12T01:02:52;8.95;;;3.25;;
64857;SDS011;51335;51.148;6.950;2023-03-12T01:03:22;7.50;;;2.75;;
64857;SDS011;51335;51.148;6.950;2023-03-12T01:03:53;7.60;;;3.17;;
64857;SDS011;51335;51.148;6.950;2023-03-12T01:04:23;8.05;;;2.85;;
64857;SDS011;51335;51.148;6.950;2023-03-12T01:04:54;6.25;;;2.60;;
64857;SDS011;51335;51.148;6.950;2023-03-12T01:05:24;6.43;;;3.00;;
64857;SDS011;51335;51.148;6.950;2023-03-12T01:05:55;8.57;;;2.60;;
64857;SDS011;51335;51.148;6.950;2023-03-12T01:06:26;7.57;;;2.80;;
64857;SDS011;51335;51.148;6.950;2023-03-12T01:06:57;5.05;;;2.58;;
64857;SDS011;51335;51.148;6.950;2023-03-12T01:07:27;6.63;;;2.90;;
64857;SDS011;51335;51.148;6.950;2023-03-12T01:07:57;6.85;;;2.55;;
64857;SDS011;51335;51.148;6.950;2023-03-12T01:08:28;6.82;;;2.47;;
64857;SDS011;51335;51.148;6.950;2023-03-12T01:09:00;9.00;;;2.55;;
64857;SDS011;51335;51.148;6.950;2023-03-12T01:09:34;9.35;;;2.58;;
64857;SDS011;51335;51.148;6.950;2023-03-12T01:10:05;7.88;;;2.80;;
64857;SDS011;51335;51.148;6.950;2023-03-12T01:10:36;6.10;;;2.38;;
64857;SDS011;51335;51.148;6.950;2023-03-12T01:11:13;5.78;;;2.65;;
64857;SDS011;51335;51.148;6.950;2023-03-12T01:11:44;7.32;;;2.75;;
64857;SDS011;51335;51.148;6.950;2023-03-12T01:12:14;6.43;;;2.55;;
64857;SDS011;51335;51.148;6.950;2023-03-12T01:12:45;10.07;;;2.67;;
64857;SDS011;51335;51.148;6.950;2023-03-12T01:13:16;5.60;;;2.60;;
64857;SDS011;51335;51.148;6.950;2023-03-12T01:13:47;7.68;;;2.47;;
64857;SDS011;51335;51.148;6.950;2023-03-12T01:14:17;3.78;;;2.50;;
64857;SDS011;51335;51.148;6.950;2023-03-12T01:14:47;6.63;;;2.85;;
64857;SDS011;51335;51.148;6.950;2023-03-12T01:15:17;5.55;;;2.60;;
64857;SDS011;51335;51.148;6.950;2023-03-12T01:15:48;7.30;;;2.72;;
64857;SDS011;51335;51.148;6.950;2023-03-12T01:16:18;4.72;;;2.40;;
64857;SDS011;51335;51.148;6.950;2023-03-12T01:16:49;7.13;;;2.70;;
64857;SDS011;51335;51.148;6.950;2023-03-12T01:17:19;6.53;;;2.80;;
64857;SDS011;51335;51.148;6.950;2023-03-12T01:17:49;6.38;;;2.40;;
64857;SDS011;51335;51.148;6.950;2023-03-12T01:18:20;4.53;;;2.55;;
64857;SDS011;51335;51.148;6.950;2023-03-12T01:18:51;4.75;;;2.55;;
64857;SDS011;51335;51.148;6.950;2023-03-12T01:19:21;6.25;;;2.45;;
64857;SDS011;51335;51.148;6.950;2023-03-12T01:19:51;5.15;;;2.30;;
64857;SDS011;51335;51.148;6.950;2023-03-12T01:20:21;5.00;;;2.30;;
64857;SDS011;51335;51.148;6.950;2023-03-12T01:20:52;7.47;;;2.70;;
64857;SDS011;51335;51.148;6.950;2023-03-12T01:21:23;6.75;;;2.30;;
64857;SDS011;51335;51.148;6.950;2023-03-12T01:21:54;9.40;;;2.25;;
64857;SDS011;51335;51.148;6.950;2023-03-12T01:22:24;6.75;;;2.60;;
64857;SDS011;51335;51.148;6.950;2023-03-12T01:22:54;7.75;;;2.33;;
64857;SDS011;51335;51.148;6.950;2023-03-12T01:23:25;5.88;;;2.55;;
64857;SDS011;51335;51.148;6.950;2023-03-12T01:23:55;7.63;;;2.30;;
64857;SDS011;51335;51.148;6.950;2023-03-12T01:24:26;3.63;;;2.30;;
64857;SDS011;51335;51.148;6.950;2023-03-12T01:24:56;9.40;;;2.40;;
64857;SDS011;51335;51.148;6.950;2023-03-12T01:25:27;7.22;;;2.50;;
64857;SDS011;51335;51.148;6.950;2023-03-12T01:25:57;4.80;;;2.25;;
64857;SDS011;51335;51.148;6.950;2023-03-12T01:26:27;5.50;;;2.33;;
64857;SDS011;51335;51.148;6.950;2023-03-12T01:26:57;7.53;;;2.55;;
64857;SDS011;51335;51.148;6.950;2023-03-12T01:27:28;3.72;;;2.42;;
64857;SDS011;51335;51.148;6.950;2023-03-12T01:27:58;6.47;;;2.28;;
64857;SDS011;51335;51.148;6.950;2023-03-12T01:28:29;6.30;;;2.20;;
64857;SDS011;51335;51.148;6.950;2023-03-12T01:28:59;5.80;;;2.33;;
64857;SDS011;51335;51.148;6.950;2023-03-12T01:29:29;4.45;;;2.15;;
64857;SDS011;51335;51.148;6.950;2023-03-12T01:29:59;5.88;;;2.22;;
64857;SDS011;51335;51.148;6.950;2023-03-12T01:30:30;6.38;;;2.40;;
64857;SDS011;51335;51.148;6.950;2023-03-12T01:31:07;11.05;;;2.63;;
64857;SDS011;51335;51.148;6.950;2023-03-12T01:31:41;4.53;;;2.40;;
64857;SDS011;51335;51.148;6.950;2023-03-12T01:32:12;4.75;;;2.33;;
64857;SDS011;51335;51.148;6.950;2023-03-12T01:32:42;4.90;;;2.33;;
64857;SDS011;51335;51.148;6.950;2023-03-12T01:33:12;7.18;;;2.40;;
64857;SDS011;51335;51.148;6.950;2023-03-12T01:33:43;9.57;;;2.30;;
64857;SDS011;51335;51.148;6.950;2023-03-12T01:34:16;5.85;;;2.30;;
64857;SDS011;51335;51.148;6.950;2023-03-12T01:34:47;5.75;;;2.33;;
64857;SDS011;51335;51.148;6.950;2023-03-12T01:35:17;3.78;;;2.15;;
64857;SDS011;51335;51.148;6.950;2023-03-12T01:35:47;4.85;;;2.40;;
64857;SDS011;51335;51.148;6.950;2023-03-12T01:36:22;6.75;;;2.47;;
64857;SDS011;51335;51.148;6.950;2023-03-12T01:36:56;5.57;;;2.20;;
64857;SDS011;51335;51.148;6.950;2023-03-12T01:37:27;4.20;;;2.20;;
64857;SDS011;51335;51.148;6.950;2023-03-12T01:37:58;6.97;;;2.38;;
64857;SDS011;51335;51.148;6.950;2023-03-12T01:38:28;5.20;;;2.22;;
64857;SDS011;51335;51.148;6.950;2023-03-12T01:38:58;6.43;;;2.20;;
64857;SDS011;51335;51.148;6.950;2023-03-12T01:39:29;9.50;;;2.33;;
64857;SDS011;51335;51.148;6.950;2023-03-12T01:39:59;4.97;;;2.08;;
64857;SDS011;51335;51.148;6.950;2023-03-12T01:40:31;5.15;;;2.00;;
64857;SDS011;51335;51.148;6.950;2023-03-12T01:41:02;7.47;;;2.28;;
64857;SDS011;51335;51.148;6.950;2023-03-12T01:41:33;7.05;;;2.38;;
64857;SDS011;51335;51.148;6.950;2023-03-12T01:42:03;6.13;;;2.33;;
64857;SDS011;51335;51.148;6.950;2023-03-12T01:42:34;4.43;;;2.20;;
64857;SDS011;51335;51.148;6.950;2023-03-12T01:43:24;7.63;;;2.65;;
64857;SDS011;51335;51.148;6.950;2023-03-12T01:44:00;7.15;;;2.20;;
64857;SDS011;51335;51.148;6.950;2023-03-12T01:44:51;5.82;;;2.30;;
64857;SDS011;51335;51.148;6.950;2023-03-12T01:46:35;5.93;;;2.60;;
64857;SDS011;51335;51.148;6.950;2023-03-12T01:47:11;11.63;;;2.40;;
64857;SDS011;51335;51.148;6.950;2023-03-12T01:47:42;5.35;;;2.72;;
64857;SDS011;51335;51.148;6.950;2023-03-12T01:48:12;4.43;;;2.00;;
64857;SDS011;51335;51.148;6.950;2023-03-12T01:48:52;7.07;;;2.30;;
64857;SDS011;51335;51.148;6.950;2023-03-12T01:49:28;9.20;;;2.78;;
64857;SDS011;51335;51.148;6.950;2023-03-12T01:50:00;6.07;;;2.20;;
64857;SDS011;51335;51.148;6.950;2023-03-12T01:50:31;7.05;;;2.55;;
64857;SDS011;51335;51.148;6.950;2023-03-12T01:51:02;5.10;;;2.15;;
64857;SDS011;51335;51.148;6.950;2023-03-12T01:52:22;5.70;;;2.10;;
64857;SDS011;51335;51.148;6.950;2023-03-12T01:53:05;5.75;;;2.65;;
64857;SDS011;51335;51.148;6.950;2023-03-12T01:53:35;6.20;;;2.17;;
64857;SDS011;51335;51.148;6.950;2023-03-12T01:54:14;5.57;;;2.20;;
64857;SDS011;51335;51.148;6.950;2023-03-12T01:55:26;5.97;;;2.08;;
64857;SDS011;51335;51.148;6.950;2023-03-12T01:55:57;5.10;;;2.30;;
64857;SDS011;51335;51.148;6.950;2023-03-12T01:56:31;5.78;;;2.63;;
64857;SDS011;51335;51.148;6.950;2023-03-12T01:57:03;4.75;;;2.10;;
64857;SDS011;51335;51.148;6.950;2023-03-12T01:57:53;10.63;;;2.38;;
64857;SDS011;51335;51.148;6.950;2023-03-12T01:58:26;4.05;;;2.10;;
64857;SDS011;51335;51.148;6.950;2023-03-12T01:59:01;4.63;;;2.03;;
64857;SDS011;51335;51.148;6.950;2023-03-12T01:59:43;6.18;;;2.08;;
64857;SDS011;51335;51.148;6.950;2023-03-12T02:00:19;5.47;;;2.47;;
64857;SDS011;51335;51.148;6.950;2023-03-12T02:00:52;8.65;;;2.65;;
64857;SDS011;51335;51.148;6.950;2023-03-12T02:01:23;6.90;;;2.20;;
64857;SDS011;51335;51.148;6.950;2023-03-12T02:01:54;4.45;;;2.10;;
64857;SDS011;51335;51.148;6.950;2023-03-12T02:02:25;6.00;;;2.20;;
64857;SDS011;51335;51.148;6.950;2023-03-12T02:02:58;5.30;;;2.55;;
64857;SDS011;51335;51.148;6.950;2023-03-12T02:03:31;6.50;;;2.40;;
64857;SDS011;51335;51.148;6.950;2023-03-12T02:04:02;7.38;;;2.50;;
64857;SDS011;51335;51.148;6.950;2023-03-12T02:04:32;4.53;;;2.30;;
64857;SDS011;51335;51.148;6.950;2023-03-12T02:05:44;8.32;;;2.30;;
64857;SDS011;51335;51.148;6.950;2023-03-12T02:06:20;8.93;;;2.15;;
64857;SDS011;51335;51.148;6.950;2023-03-12T02:07:12;6.22;;;2.75;;
64857;SDS011;51335;51.148;6.950;2023-03-12T02:07:44;9.90;;;2.05;;
64857;SDS011;51335;51.148;6.950;2023-03-12T02:08:15;6.28;;;2.00;;
64857;SDS011;51335;51.148;6.950;2023-03-12T02:08:47;4.97;;;2.10;;
64857;SDS011;51335;51.148;6.950;2023-03-12T02:09:19;6.50;;;2.30;;
64857;SDS011;51335;51.148;6.950;2023-03-12T02:09:50;4.30;;;2.08;;
64857;SDS011;51335;51.148;6.950;2023-03-12T02:10:21;5.45;;;1.83;;
64857;SDS011;51335;51.148;6.950;2023-03-12T02:10:51;7.13;;;2.13;;
64857;SDS011;51335;51.148;6.950;2023-03-12T02:11:21;5.60;;;2.20;;
64857;SDS011;51335;51.148;6.950;2023-03-12T02:11:52;6.57;;;2.50;;
64857;SDS011;51335;51.148;6.950;2023-03-12T02:12:22;6.93;;;2.40;;
64857;SDS011;51335;51.148;6.950;2023-03-12T02:12:52;5.13;;;2.10;;
64857;SDS011;51335;51.148;6.950;2023-03-12T02:13:23;7.15;;;2.50;;
64857;SDS011;51335;51.148;6.950;2023-03-12T02:13:53;6.35;;;2.40;;
64857;SDS011;51335;51.148;6.950;2023-03-12T02:14:23;4.13;;;2.17;;
64857;SDS011;51335;51.148;6.950;2023-03-12T02:14:54;6.78;;;2.38;;
64857;SDS011;51335;51.148;6.950;2023-03-12T02:15:24;6.20;;;2.03;;
64857;SDS011;51335;51.148;6.950;2023-03-12T02:15:54;5.82;;;2.63;;
64857;SDS011;51335;51.148;6.950;2023-03-12T02:16:25;7.20;;;2.47;;
64857;SDS011;51335;51.148;6.950;2023-03-12T02:16:56;4.20;;;2.33;;
64857;SDS011;51335;51.148;6.950;2023-03-12T02:17:26;8.25;;;2.67;;
64857;SDS011;51335;51.148;6.950;2023-03-12T02:17:57;5.80;;;2.28;;
64857;SDS011;51335;51.148;6.950;2023-03-12T02:18:27;4.40;;;1.90;;
64857;SDS011;51335;51.148;6.950;2023-03-12T02:18:58;4.40;;;2.10;;
64857;SDS011;51335;51.148;6.950;2023-03-12T02:19:42;4.85;;;2.40;;
64857;SDS011;51335;51.148;6.950;2023-03-12T02:21:23;6.10;;;2.17;;
64857;SDS011;51335;51.148;6.950;2023-03-12T02:21:56;5.13;;;1.90;;
64857;SDS011;51335;51.148;6.950;2023-03-12T02:22:28;6.05;;;2.15;;
64857;SDS011;51335;51.148;6.950;2023-03-12T02:23:03;7.32;;;2.20;;
64857;SDS011;51335;51.148;6.950;2023-03-12T02:24:29;5.95;;;2.28;;
64857;SDS011;51335;51.148;6.950;2023-03-12T02:26:08;3.85;;;2.10;;
64857;SDS011;51335;51.148;6.950;2023-03-12T02:26:40;6.45;;;1.98;;
64857;SDS011;51335;51.148;6.950;2023-03-12T02:27:11;7.43;;;2.70;;
64857;SDS011;51335;51.148;6.950;2023-03-12T02:27:42;6.03;;;2.30;;
64857;SDS011;51335;51.148;6.950;2023-03-12T02:28:14;7.60;;;2.67;;
64857;SDS011;51335;51.148;6.950;2023-03-12T02:28:46;6.22;;;2.40;;
64857;SDS011;51335;51.148;6.950;2023-03-12T02:29:18;8.38;;;2.42;;
64857;SDS011;51335;51.148;6.950;2023-03-12T02:29:49;5.05;;;2.45;;
64857;SDS011;51335;51.148;6.950;2023-03-12T02:30:19;6.68;;;2.30;;
64857;SDS011;51335;51.148;6.950;2023-03-12T02:30:51;7.93;;;2.58;;
64857;SDS011;51335;51.148;6.950;2023-03-12T02:31:27;7.85;;;2.45;;
64857;SDS011;51335;51.148;6.950;2023-03-12T02:32:01;4.65;;;2.20;;
64857;SDS011;51335;51.148;6.950;2023-03-12T02:32:34;4.88;;;2.20;;
64857;SDS011;51335;51.148;6.950;2023-03-12T02:33:08;6.57;;;2.15;;
64857;SDS011;51335;51.148;6.950;2023-03-12T02:33:39;6.18;;;2.00;;
64857;SDS011;51335;51.148;6.950;2023-03-12T02:34:09;3.75;;;2.13;;
64857;SDS011;51335;51.148;6.950;2023-03-12T02:34:40;5.75;;;2.53;;
64857;SDS011;51335;51.148;6.950;2023-03-12T02:35:10;4.45;;;2.10;;
64857;SDS011;51335;51.148;6.950;2023-03-12T02:35:44;4.57;;;2.20;;
64857;SDS011;51335;51.148;6.950;2023-03-12T02:36:16;8.73;;;2.28;;
64857;SDS011;51335;51.148;6.950;2023-03-12T02:36:46;4.45;;;2.20;;
64857;SDS011;51335;51.148;6.950;2023-03-12T02:37:18;7.15;;;2.40;;
64857;SDS011;51335;51.148;6.950;2023-03-12T02:37:49;7.25;;;2.35;;
64857;SDS011;51335;51.148;6.950;2023-03-12T02:39:05;10.48;;;2.40;;
64857;SDS011;51335;51.148;6.950;2023-03-12T02:39:36;7.63;;;2.17;;
64857;SDS011;51335;51.148;6.950;2023-03-12T02:40:18;6.13;;;2.50;;
64857;SDS011;51335;51.148;6.950;2023-03-12T02:40:54;7.45;;;2.40;;
64857;SDS011;51335;51.148;6.950;2023-03-12T02:41:33;7.20;;;2.15;;
64857;SDS011;51335;51.148;6.950;2023-03-12T02:42:06;8.73;;;2.30;;
64857;SDS011;51335;51.148;6.950;2023-03-12T02:42:37;5.25;;;2.25;;
64857;SDS011;51335;51.148;6.950;2023-03-12T02:43:08;5.68;;;2.08;;
64857;SDS011;51335;51.148;6.950;2023-03-12T02:43:39;6.70;;;2.38;;
64857;SDS011;51335;51.148;6.950;2023-03-12T02:44:59;5.28;;;2.08;;
64857;SDS011;51335;51.148;6.950;2023-03-12T02:45:30;7.35;;;2.47;;
64857;SDS011;51335;51.148;6.950;2023-03-12T02:46:03;5.82;;;2.40;;
64857;SDS011;51335;51.148;6.950;2023-03-12T02:46:34;4.45;;;2.25;;
64857;SDS011;51335;51.148;6.950;2023-03-12T02:47:08;6.70;;;2.28;;
64857;SDS011;51335;51.148;6.950;2023-03-12T02:47:38;5.90;;;2.30;;
64857;SDS011;51335;51.148;6.950;2023-03-12T02:48:08;3.88;;;2.20;;
64857;SDS011;51335;51.148;6.950;2023-03-12T02:48:39;8.63;;;2.28;;
64857;SDS011;51335;51.148;6.950;2023-03-12T02:49:09;5.90;;;2.58;;
64857;SDS011;51335;51.148;6.950;2023-03-12T02:49:40;6.25;;;2.42;;
64857;SDS011;51335;51.148;6.950;2023-03-12T02:50:10;6.88;;;2.50;;
64857;SDS011;51335;51.148;6.950;2023-03-12T02:50:41;7.47;;;2.42;;
64857;SDS011;51335;51.148;6.950;2023-03-12T02:51:11;7.28;;;2.25;;
64857;SDS011;51335;51.148;6.950;2023-03-12T02:51:43;5.35;;;2.22;;
64857;SDS011;51335;51.148;6.950;2023-03-12T02:52:13;7.13;;;2.25;;
64857;SDS011;51335;51.148;6.950;2023-03-12T02:52:44;7.72;;;2.50;;
64857;SDS011;51335;51.148;6.950;2023-03-12T02:53:14;6.10;;;2.42;;
64857;SDS011;51335;51.148;6.950;2023-03-12T02:53:44;6.90;;;2.20;;
64857;SDS011;51335;51.148;6.950;2023-03-12T02:54:15;5.03;;;2.20;;
64857;SDS011;51335;51.148;6.950;2023-03-12T02:54:47;5.88;;;2.45;;
64857;SDS011;51335;51.148;6.950;2023-03-12T02:55:17;4.00;;;2.40;;
64857;SDS011;51335;51.148;6.950;2023-03-12T02:55:47;5.43;;;2.40;;
64857;SDS011;51335;51.148;6.950;2023-03-12T02:56:18;6.13;;;2.60;;
64857;SDS011;51335;51.148;6.950;2023-03-12T02:56:48;6.68;;;3.13;;
64857;SDS011;51335;51.148;6.950;2023-03-12T02:57:19;6.97;;;2.22;;
64857;SDS011;51335;51.148;6.950;2023-03-12T02:57:49;8.50;;;2.83;;
64857;SDS011;51335;51.148;6.950;2023-03-12T02:58:20;5.30;;;2.47;;
64857;SDS011;51335;51.148;6.950;2023-03-12T02:58:50;5.70;;;2.58;;
64857;SDS011;51335;51.148;6.950;2023-03-12T02:59:21;5.78;;;2.53;;
64857;SDS011;51335;51.148;6.950;2023-03-12T02:59:52;5.97;;;2.40;;
64857;SDS011;51335;51.148;6.950;2023-03-12T03:00:23;5.63;;;2.30;;
64857;SDS011;51335;51.148;6.950;2023-03-12T03:00:53;5.63;;;2.50;;
64857;SDS011;51335;51.148;6.950;2023-03-12T03:01:24;5.18;;;2.47;;
64857;SDS011;51335;51.148;6.950;2023-03-12T03:01:56;7.15;;;2.45;;
64857;SDS011;51335;51.148;6.950;2023-03-12T03:02:27;6.18;;;2.58;;
64857;SDS011;51335;51.148;6.950;2023-03-12T03:02:58;5.43;;;2.28;;
64857;SDS011;51335;51.148;6.950;2023-03-12T03:03:29;5.00;;;2.33;;
64857;SDS011;51335;51.148;6.950;2023-03-12T03:04:00;8.60;;;2.58;;
64857;SDS011;51335;51.148;6.950;2023-03-12T03:04:31;7.20;;;2.63;;
64857;SDS011;51335;51.148;6.950;2023-03-12T03:05:02;4.78;;;2.22;;
64857;SDS011;51335;51.148;6.950;2023-03-12T03:05:32;5.60;;;2.50;;
64857;SDS011;51335;51.148;6.950;2023-03-12T03:06:02;6.55;;;2.28;;
64857;SDS011;51335;51.148;6.950;2023-03-12T03:06:33;7.00;;;2.35;;
64857;SDS011;51335;51.148;6.950;2023-03-12T03:07:05;7.97;;;2.53;;
64857;SDS011;51335;51.148;6.950;2023-03-12T03:07:35;6.20;;;2.15;;
64857;SDS011;51335;51.148;6.950;2023-03-12T03:08:05;5.82;;;2.17;;
64857;SDS011;51335;51.148;6.950;2023-03-12T03:08:36;7.22;;;2.72;;
64857;SDS011;51335;51.148;6.950;2023-03-12T03:09:06;2.85;;;1.83;;
64857;SDS011;51335;51.148;6.950;2023-03-12T03:09:37;4.47;;;1.80;;
64857;SDS011;51335;51.148;6.950;2023-03-12T03:10:07;6.10;;;2.13;;
64857;SDS011;51335;51.148;6.950;2023-03-12T03:10:38;5.53;;;2.10;;
64857;SDS011;51335;51.148;6.950;2023-03-12T03:11:09;7.55;;;2.15;;
64857;SDS011;51335;51.148;6.950;2023-03-12T03:11:39;6.53;;;2.15;;
64857;SDS011;51335;51.148;6.950;2023-03-12T03:12:09;6.63;;;2.00;;
64857;SDS011;51335;51.148;6.950;2023-03-12T03:12:40;7.43;;;2.28;;
64857;SDS011;51335;51.148;6.950;2023-03-12T03:13:10;4.10;;;1.90;;
64857;SDS011;51335;51.148;6.950;2023-03-12T03:13:41;6.68;;;2.42;;
64857;SDS011;51335;51.148;6.950;2023-03-12T03:14:11;5.97;;;2.40;;
64857;SDS011;51335;51.148;6.950;2023-03-12T03:14:41;5.97;;;2.10;;
64857;SDS011;51335;51.148;6.950;2023-03-12T03:15:11;4.05;;;2.10;;
64857;SDS011;51335;51.148;6.950;2023-03-12T03:15:42;4.15;;;1.55;;
64857;SDS011;51335;51.148;6.950;2023-03-12T03:16:12;6.35;;;2.17;;
64857;SDS011;51335;51.148;6.950;2023-03-12T03:16:42;4.78;;;1.88;;
64857;SDS011;51335;51.148;6.950;2023-03-12T03:17:13;6.15;;;2.00;;
64857;SDS011;51335;51.148;6.950;2023-03-12T03:17:43;6.57;;;2.35;;